createdAt,value
2018-02-01T00:00:03.371Z,10.41
2018-02-01T00:01:03.398Z,10.41
2018-02-01T00:02:03.429Z,10.41
2018-02-01T00:03:03.453Z,10.70
2018-02-01T00:04:03.482Z,10.70
2018-02-01T00:05:03.512Z,10.80
2018-02-01T00:06:03.539Z,10.22
2018-02-01T00:07:03.566Z,10.50
2018-02-01T00:08:03.595Z,10.70
2018-02-01T00:09:03.623Z,10.60
2018-02-01T00:10:03.670Z,10.12
2018-02-01T00:11:03.681Z,10.60
2018-02-01T00:12:03.709Z,10.41
2018-02-01T00:13:03.735Z,10.60
2018-02-01T00:14:03.765Z,10.31
2018-02-01T00:15:03.793Z,10.31
2018-02-01T00:16:03.820Z,10.22
2018-02-01T00:17:03.848Z,10.70
2018-02-01T00:18:03.877Z,10.31
2018-02-01T00:19:03.905Z,10.31
2018-02-01T00:20:03.933Z,10.31
2018-02-01T00:21:03.998Z,10.22
2018-02-01T00:22:04.010Z,10.31
2018-02-01T00:23:04.017Z,10.41
2018-02-01T00:24:04.074Z,10.22
2018-02-01T00:25:04.073Z,10.41
2018-02-01T00:26:04.102Z,10.41
2018-02-01T00:27:04.129Z,10.41
2018-02-01T00:28:04.157Z,10.31
2018-02-01T00:29:04.186Z,10.41
2018-02-01T00:30:04.215Z,10.31
2018-02-01T00:31:04.242Z,10.31
2018-02-01T00:32:04.270Z,10.31
2018-02-01T00:33:04.299Z,10.31
2018-02-01T00:34:04.327Z,10.41
2018-02-01T00:35:04.355Z,10.50
2018-02-01T00:36:04.386Z,10.31
2018-02-01T00:37:04.412Z,10.41
2018-02-01T00:38:04.440Z,10.22
2018-02-01T00:39:04.498Z,10.22
2018-02-01T00:40:04.496Z,10.60
2018-02-01T00:41:04.524Z,10.70
2018-02-01T00:42:04.552Z,10.41
2018-02-01T00:43:04.579Z,10.60
2018-02-01T00:44:04.626Z,10.60
2018-02-01T00:45:04.637Z,10.60
2018-02-01T00:46:04.665Z,10.60
2018-02-01T00:47:04.692Z,10.50
2018-02-01T00:48:04.720Z,10.50
2018-02-01T00:49:04.748Z,10.50
2018-02-01T00:50:04.777Z,10.70
2018-02-01T00:51:04.805Z,10.60
2018-02-01T00:52:04.850Z,10.50
2018-02-01T00:53:04.868Z,10.60
2018-02-01T00:54:04.890Z,10.50
2018-02-01T00:55:04.917Z,10.31
2018-02-01T00:56:04.946Z,10.41
2018-02-01T00:57:04.974Z,10.60
2018-02-01T00:58:05.003Z,10.60
2018-02-01T00:59:05.030Z,10.41
2018-02-01T01:00:05.058Z,10.60
2018-02-01T01:01:05.086Z,10.31
2018-02-01T01:02:05.115Z,10.50
2018-02-01T01:03:05.156Z,10.41
2018-02-01T01:04:05.170Z,10.31
2018-02-01T01:05:05.199Z,10.22
2018-02-01T01:06:05.227Z,10.22
2018-02-01T01:07:05.254Z,10.41
2018-02-01T01:08:05.283Z,10.41
2018-02-01T01:09:05.311Z,10.41
2018-02-01T01:10:05.350Z,10.31
2018-02-01T01:11:05.367Z,10.31
2018-02-01T01:12:05.395Z,10.22
2018-02-01T01:13:05.423Z,10.22
2018-02-01T01:14:05.456Z,10.31
2018-02-01T01:15:05.479Z,10.02
2018-02-01T01:16:05.508Z,10.12
2018-02-01T01:17:05.541Z,10.12
2018-02-01T01:18:05.567Z,10.31
2018-02-01T01:19:05.591Z,10.02
2018-02-01T01:20:05.620Z,9.93
2018-02-01T01:21:05.648Z,10.12
2018-02-01T01:22:05.737Z,10.31
2018-02-01T01:23:05.704Z,10.31
2018-02-01T01:24:05.736Z,10.31
2018-02-01T01:25:05.792Z,10.41
2018-02-01T01:26:05.791Z,10.22
2018-02-01T01:27:05.816Z,10.02
2018-02-01T01:28:05.847Z,10.12
2018-02-01T01:29:05.873Z,10.02
2018-02-01T01:30:05.901Z,10.12
2018-02-01T01:31:05.929Z,10.12
2018-02-01T01:32:05.961Z,10.31
2018-02-01T01:33:05.985Z,10.12
2018-02-01T01:34:06.014Z,10.02
2018-02-01T01:35:06.041Z,10.22
2018-02-01T01:36:06.069Z,10.12
2018-02-01T01:37:06.097Z,10.12
2018-02-01T01:38:06.128Z,10.22
2018-02-01T01:39:06.153Z,10.12
2018-02-01T01:40:06.182Z,10.22
2018-02-01T01:41:06.230Z,10.02
2018-02-01T01:42:06.241Z,10.02
2018-02-01T01:43:06.268Z,10.12
2018-02-01T01:44:06.294Z,10.22
2018-02-01T01:45:06.326Z,10.22
2018-02-01T01:46:06.350Z,10.02
2018-02-01T01:47:06.378Z,9.93
2018-02-01T01:48:06.406Z,10.22
2018-02-01T01:49:06.514Z,10.22
2018-02-01T01:50:06.463Z,10.22
2018-02-01T01:51:06.490Z,10.02
2018-02-01T01:52:06.519Z,9.83
2018-02-01T01:53:06.570Z,10.22
2018-02-01T01:54:06.576Z,10.22
2018-02-01T01:55:06.609Z,10.12
2018-02-01T01:56:06.631Z,10.22
2018-02-01T01:57:06.659Z,10.22
2018-02-01T01:58:06.688Z,10.12
2018-02-01T01:59:06.766Z,10.02
2018-02-01T02:00:06.773Z,10.02
2018-02-01T02:01:06.783Z,10.22
2018-02-01T02:02:06.801Z,10.12
2018-02-01T02:03:06.828Z,10.22
2018-02-01T02:04:06.858Z,10.02
2018-02-01T02:05:06.933Z,10.22
2018-02-01T02:06:06.913Z,9.74
2018-02-01T02:07:06.941Z,9.54
2018-02-01T02:08:06.998Z,9.83
2018-02-01T02:09:06.997Z,9.64
2018-02-01T02:10:07.025Z,9.64
2018-02-01T02:11:07.053Z,9.83
2018-02-01T02:12:07.086Z,9.64
2018-02-01T02:13:07.109Z,9.93
2018-02-01T02:14:07.161Z,10.02
2018-02-01T02:15:07.165Z,9.54
2018-02-01T02:16:07.194Z,9.93
2018-02-01T02:17:07.221Z,9.74
2018-02-01T02:18:07.250Z,9.74
2018-02-01T02:19:07.277Z,9.45
2018-02-01T02:20:07.306Z,9.64
2018-02-01T02:21:07.341Z,8.97
2018-02-01T02:22:07.363Z,9.06
2018-02-01T02:23:07.390Z,8.96
2018-02-01T02:24:07.449Z,9.06
2018-02-01T02:25:07.446Z,9.25
2018-02-01T02:26:07.475Z,9.16
2018-02-01T02:27:07.502Z,9.35
2018-02-01T02:28:07.562Z,9.06
2018-02-01T02:29:07.560Z,9.16
2018-02-01T02:30:07.588Z,9.06
2018-02-01T02:31:07.615Z,8.96
2018-02-01T02:32:07.643Z,9.25
2018-02-01T02:33:07.672Z,9.06
2018-02-01T02:34:07.737Z,9.25
2018-02-01T02:35:07.726Z,9.16
2018-02-01T02:36:07.782Z,9.16
2018-02-01T02:37:07.784Z,9.16
2018-02-01T02:38:07.811Z,9.06
2018-02-01T02:39:07.839Z,9.06
2018-02-01T02:40:07.867Z,8.97
2018-02-01T02:41:07.911Z,9.06
2018-02-01T02:42:07.923Z,9.34
2018-02-01T02:43:07.951Z,8.96
2018-02-01T02:44:07.979Z,9.15
2018-02-01T02:45:08.039Z,9.25
2018-02-01T02:46:08.037Z,9.25
2018-02-01T02:47:08.063Z,9.15
2018-02-01T02:48:08.092Z,8.96
2018-02-01T02:49:08.119Z,9.34
2018-02-01T02:50:08.148Z,9.16
2018-02-01T02:51:08.175Z,9.35
2018-02-01T02:52:08.203Z,9.35
2018-02-01T02:53:08.231Z,9.25
2018-02-01T02:54:08.259Z,9.34
2018-02-01T02:55:08.287Z,8.58
2018-02-01T02:56:08.315Z,9.35
2018-02-01T02:57:08.343Z,9.25
2018-02-01T02:58:08.371Z,9.16
2018-02-01T02:59:08.398Z,9.35
2018-02-01T03:00:08.427Z,9.16
2018-02-01T03:01:08.459Z,9.16
2018-02-01T03:02:08.483Z,9.06
2018-02-01T03:03:08.510Z,8.67
2018-02-01T03:04:08.538Z,9.06
2018-02-01T03:05:08.566Z,8.87
2018-02-01T03:06:08.594Z,9.16
2018-02-01T03:07:08.622Z,8.77
2018-02-01T03:08:08.650Z,8.97
2018-02-01T03:09:08.678Z,8.67
2018-02-01T03:10:08.707Z,8.67
2018-02-01T03:11:08.734Z,8.97
2018-02-01T03:12:08.762Z,8.87
2018-02-01T03:13:08.790Z,8.87
2018-02-01T03:14:08.818Z,8.97
2018-02-01T03:15:08.846Z,8.87
2018-02-01T03:16:08.874Z,8.77
2018-02-01T03:17:08.902Z,8.77
2018-02-01T03:18:08.964Z,8.97
2018-02-01T03:19:08.957Z,8.87
2018-02-01T03:20:08.986Z,8.87
2018-02-01T03:21:09.014Z,8.58
2018-02-01T03:22:09.042Z,8.87
2018-02-01T03:23:09.069Z,8.77
2018-02-01T03:24:09.098Z,8.77
2018-02-01T03:25:09.126Z,8.77
2018-02-01T03:26:09.154Z,8.77
2018-02-01T03:27:09.181Z,8.48
2018-02-01T03:28:09.210Z,8.87
2018-02-01T03:29:09.238Z,8.67
2018-02-01T03:30:09.266Z,8.77
2018-02-01T03:31:09.323Z,8.67
2018-02-01T03:32:09.341Z,8.87
2018-02-01T03:33:09.349Z,8.97
2018-02-01T03:34:09.378Z,8.97
2018-02-01T03:35:09.405Z,8.67
2018-02-01T03:36:09.433Z,8.87
2018-02-01T03:37:09.462Z,8.87
2018-02-01T03:38:09.490Z,8.87
2018-02-01T03:39:09.519Z,8.77
2018-02-01T03:40:09.546Z,8.39
2018-02-01T03:41:09.599Z,8.87
2018-02-01T03:42:09.602Z,8.77
2018-02-01T03:43:09.629Z,8.67
2018-02-01T03:44:09.658Z,8.48
2018-02-01T03:45:09.710Z,8.77
2018-02-01T03:46:09.715Z,8.67
2018-02-01T03:47:09.741Z,8.67
2018-02-01T03:48:09.770Z,8.48
2018-02-01T03:49:09.798Z,8.39
2018-02-01T03:50:09.832Z,8.67
2018-02-01T03:51:09.853Z,8.48
2018-02-01T03:52:09.907Z,8.58
2018-02-01T03:53:09.911Z,8.58
2018-02-01T03:54:09.938Z,8.58
2018-02-01T03:55:09.966Z,8.58
2018-02-01T03:56:09.994Z,8.58
2018-02-01T03:57:10.023Z,8.48
2018-02-01T03:58:10.050Z,8.48
2018-02-01T03:59:10.081Z,8.67
2018-02-01T04:00:10.114Z,8.48
2018-02-01T04:01:10.134Z,8.58
2018-02-01T04:02:10.163Z,8.39
2018-02-01T04:03:10.190Z,8.39
2018-02-01T04:04:10.218Z,8.39
2018-02-01T04:05:10.277Z,8.58
2018-02-01T04:06:10.274Z,8.67
2018-02-01T04:07:10.302Z,8.67
2018-02-01T04:08:10.331Z,8.48
2018-02-01T04:09:10.359Z,8.48
2018-02-01T04:10:10.396Z,8.48
2018-02-01T04:11:10.447Z,8.67
2018-02-01T04:12:10.472Z,8.67
2018-02-01T04:13:10.471Z,8.48
2018-02-01T04:14:10.499Z,8.67
2018-02-01T04:15:10.540Z,8.48
2018-02-01T04:16:10.555Z,8.58
2018-02-01T04:17:10.582Z,8.58
2018-02-01T04:18:10.611Z,8.67
2018-02-01T04:19:10.643Z,8.77
2018-02-01T04:20:10.666Z,8.67
2018-02-01T04:21:10.694Z,8.87
2018-02-01T04:22:10.723Z,8.48
2018-02-01T04:23:10.750Z,8.48
2018-02-01T04:24:10.779Z,8.48
2018-02-01T04:25:10.846Z,8.58
2018-02-01T04:26:10.835Z,8.39
2018-02-01T04:27:10.862Z,8.39
2018-02-01T04:28:10.890Z,8.48
2018-02-01T04:29:10.922Z,8.48
2018-02-01T04:30:10.947Z,8.48
2018-02-01T04:31:10.978Z,8.58
2018-02-01T04:32:11.002Z,8.48
2018-02-01T04:33:11.030Z,8.48
2018-02-01T04:34:11.060Z,8.67
2018-02-01T04:35:11.104Z,8.97
2018-02-01T04:36:11.114Z,8.67
2018-02-01T04:37:11.143Z,8.97
2018-02-01T04:38:11.172Z,8.48
2018-02-01T04:39:11.200Z,8.39
2018-02-01T04:40:11.265Z,8.29
2018-02-01T04:41:11.256Z,8.29
2018-02-01T04:42:11.284Z,8.67
2018-02-01T04:43:11.324Z,8.48
2018-02-01T04:44:11.341Z,8.39
2018-02-01T04:45:11.371Z,8.09
2018-02-01T04:46:11.396Z,8.09
2018-02-01T04:47:11.461Z,8.39
2018-02-01T04:48:11.451Z,8.39
2018-02-01T04:49:11.479Z,8.19
2018-02-01T04:50:11.508Z,8.00
2018-02-01T04:51:11.535Z,8.19
2018-02-01T04:52:11.563Z,8.09
2018-02-01T04:53:11.592Z,8.09
2018-02-01T04:54:11.619Z,8.19
2018-02-01T04:55:11.647Z,8.19
2018-02-01T04:56:11.707Z,8.39
2018-02-01T04:57:11.706Z,8.39
2018-02-01T04:58:11.732Z,8.09
2018-02-01T04:59:11.784Z,8.19
2018-02-01T05:00:11.816Z,8.19
2018-02-01T05:01:11.818Z,8.09
2018-02-01T05:02:11.844Z,8.19
2018-02-01T05:03:11.872Z,8.19
2018-02-01T05:04:11.900Z,8.29
2018-02-01T05:05:11.929Z,8.29
2018-02-01T05:06:11.956Z,8.19
2018-02-01T05:07:11.984Z,8.29
2018-02-01T05:08:12.012Z,8.29
2018-02-01T05:09:12.041Z,8.19
2018-02-01T05:10:12.068Z,8.29
2018-02-01T05:11:12.097Z,7.90
2018-02-01T05:12:12.124Z,7.90
2018-02-01T05:13:12.152Z,7.90
2018-02-01T05:14:12.181Z,7.90
2018-02-01T05:15:12.208Z,8.09
2018-02-01T05:16:12.236Z,8.00
2018-02-01T05:17:12.264Z,8.00
2018-02-01T05:18:12.293Z,8.09
2018-02-01T05:19:12.324Z,8.00
2018-02-01T05:20:12.349Z,8.00
2018-02-01T05:21:12.376Z,8.00
2018-02-01T05:22:12.437Z,8.19
2018-02-01T05:23:12.432Z,8.09
2018-02-01T05:24:12.460Z,8.19
2018-02-01T05:25:12.488Z,8.19
2018-02-01T05:26:12.541Z,8.19
2018-02-01T05:27:12.561Z,8.29
2018-02-01T05:28:12.572Z,8.19
2018-02-01T05:29:12.600Z,8.00
2018-02-01T05:30:12.664Z,7.90
2018-02-01T05:31:12.656Z,7.81
2018-02-01T05:32:12.685Z,8.09
2018-02-01T05:33:12.712Z,7.81
2018-02-01T05:34:12.740Z,8.19
2018-02-01T05:35:12.774Z,7.90
2018-02-01T05:36:12.797Z,7.90
2018-02-01T05:37:12.825Z,7.90
2018-02-01T05:38:12.854Z,8.00
2018-02-01T05:39:12.881Z,8.00
2018-02-01T05:40:12.909Z,7.81
2018-02-01T05:41:12.936Z,7.90
2018-02-01T05:42:12.965Z,8.29
2018-02-01T05:43:12.993Z,8.39
2018-02-01T05:44:13.021Z,7.90
2018-02-01T05:45:13.053Z,8.00
2018-02-01T05:46:13.078Z,8.20
2018-02-01T05:47:13.110Z,8.00
2018-02-01T05:48:13.136Z,8.00
2018-02-01T05:49:13.162Z,7.90
2018-02-01T05:50:13.189Z,7.90
2018-02-01T05:51:13.217Z,8.10
2018-02-01T05:52:13.247Z,7.90
2018-02-01T05:53:13.274Z,7.90
2018-02-01T05:54:13.333Z,8.10
2018-02-01T05:55:13.329Z,7.90
2018-02-01T05:56:13.358Z,7.90
2018-02-01T05:57:13.386Z,8.39
2018-02-01T05:58:13.414Z,8.29
2018-02-01T05:59:13.445Z,8.20
2018-02-01T06:00:13.470Z,8.20
2018-02-01T06:01:13.498Z,8.10
2018-02-01T06:02:13.532Z,7.91
2018-02-01T06:03:13.554Z,8.29
2018-02-01T06:04:13.582Z,8.11
2018-02-01T06:05:13.611Z,8.11
2018-02-01T06:06:13.653Z,8.39
2018-02-01T06:07:13.667Z,8.39
2018-02-01T06:08:13.695Z,8.29
2018-02-01T06:09:13.723Z,8.20
2018-02-01T06:10:13.752Z,8.20
2018-02-01T06:11:13.787Z,8.29
2018-02-01T06:12:13.818Z,8.29
2018-02-01T06:13:13.836Z,8.11
2018-02-01T06:14:13.903Z,8.01
2018-02-01T06:15:13.893Z,8.20
2018-02-01T06:16:13.937Z,8.00
2018-02-01T06:17:13.950Z,8.20
2018-02-01T06:18:13.978Z,8.20
2018-02-01T06:19:14.022Z,8.20
2018-02-01T06:20:14.033Z,8.20
2018-02-01T06:21:14.062Z,8.29
2018-02-01T06:22:14.090Z,8.39
2018-02-01T06:23:14.118Z,8.20
2018-02-01T06:24:14.176Z,8.29
2018-02-01T06:25:14.175Z,8.29
2018-02-01T06:26:14.203Z,8.39
2018-02-01T06:27:14.231Z,7.90
2018-02-01T06:28:14.259Z,8.00
2018-02-01T06:29:14.290Z,8.39
2018-02-01T06:30:14.316Z,7.90
2018-02-01T06:31:14.343Z,7.81
2018-02-01T06:32:14.372Z,8.10
2018-02-01T06:33:14.400Z,8.39
2018-02-01T06:34:14.429Z,8.39
2018-02-01T06:35:14.455Z,8.29
2018-02-01T06:36:14.514Z,7.81
2018-02-01T06:37:14.513Z,7.81
2018-02-01T06:38:14.582Z,8.39
2018-02-01T06:39:14.569Z,7.90
2018-02-01T06:40:14.597Z,7.90
2018-02-01T06:41:14.627Z,8.00
2018-02-01T06:42:14.654Z,8.20
2018-02-01T06:43:14.682Z,8.29
2018-02-01T06:44:14.709Z,8.00
2018-02-01T06:45:14.739Z,7.90
2018-02-01T06:46:15.538Z,8.00
2018-02-01T06:47:14.797Z,7.81
2018-02-01T06:48:14.823Z,7.90
2018-02-01T06:49:14.886Z,8.29
2018-02-01T06:50:14.880Z,8.29
2018-02-01T06:51:14.907Z,8.20
2018-02-01T06:52:14.936Z,8.39
2018-02-01T06:53:14.964Z,8.29
2018-02-01T06:54:15.005Z,8.29
2018-02-01T06:55:15.020Z,8.20
2018-02-01T06:56:15.049Z,8.10
2018-02-01T06:57:15.079Z,8.20
2018-02-01T06:58:15.105Z,8.69
2018-02-01T06:59:15.134Z,8.49
2018-02-01T07:00:15.163Z,8.49
2018-02-01T07:01:15.190Z,8.29
2018-02-01T07:02:15.218Z,8.20
2018-02-01T07:03:15.246Z,8.39
2018-02-01T07:04:15.274Z,8.39
2018-02-01T07:05:15.305Z,8.11
2018-02-01T07:06:15.351Z,8.29
2018-02-01T07:07:15.358Z,8.11
2018-02-01T07:08:15.386Z,8.20
2018-02-01T07:09:15.421Z,8.20
2018-02-01T07:10:15.444Z,8.10
2018-02-01T07:11:15.474Z,8.20
2018-02-01T07:12:15.500Z,8.11
2018-02-01T07:13:15.562Z,8.39
2018-02-01T07:14:15.582Z,8.39
2018-02-01T07:15:15.584Z,8.39
2018-02-01T07:16:15.627Z,8.39
2018-02-01T07:17:15.658Z,8.29
2018-02-01T07:18:15.670Z,8.39
2018-02-01T07:19:15.703Z,8.29
2018-02-01T07:20:15.726Z,8.39
2018-02-01T07:21:15.754Z,8.29
2018-02-01T07:22:15.783Z,8.20
2018-02-01T07:23:15.813Z,8.29
2018-02-01T07:24:15.838Z,8.29
2018-02-01T07:25:15.868Z,8.10
2018-02-01T07:26:15.896Z,8.20
2018-02-01T07:27:15.922Z,8.29
2018-02-01T07:28:15.951Z,8.20
2018-02-01T07:29:15.980Z,7.71
2018-02-01T07:30:16.009Z,7.90
2018-02-01T07:31:16.036Z,8.39
2018-02-01T07:32:16.099Z,8.00
2018-02-01T07:33:16.093Z,8.00
2018-02-01T07:34:16.122Z,7.81
2018-02-01T07:35:16.149Z,7.90
2018-02-01T07:36:16.196Z,7.90
2018-02-01T07:37:16.206Z,8.20
2018-02-01T07:38:16.234Z,7.90
2018-02-01T07:39:16.263Z,8.29
2018-02-01T07:40:16.292Z,8.10
2018-02-01T07:41:16.319Z,7.90
2018-02-01T07:42:16.350Z,7.81
2018-02-01T07:43:16.374Z,7.90
2018-02-01T07:44:16.403Z,8.00
2018-02-01T07:45:16.433Z,8.20
2018-02-01T07:46:16.460Z,8.01
2018-02-01T07:47:16.488Z,8.00
2018-02-01T07:48:16.520Z,8.20
2018-02-01T07:49:16.546Z,8.29
2018-02-01T07:50:16.574Z,8.20
2018-02-01T07:51:16.638Z,8.29
2018-02-01T07:52:16.629Z,8.29
2018-02-01T07:53:16.664Z,8.20
2018-02-01T07:54:16.686Z,8.01
2018-02-01T07:55:16.713Z,8.01
2018-02-01T07:56:16.742Z,8.39
2018-02-01T07:57:16.770Z,8.20
2018-02-01T07:58:16.802Z,8.11
2018-02-01T07:59:16.830Z,8.29
2018-02-01T08:00:16.854Z,8.59
2018-02-01T08:01:16.883Z,8.29
2018-02-01T08:02:16.912Z,8.11
2018-02-01T08:03:16.965Z,8.49
2018-02-01T08:04:16.968Z,8.29
2018-02-01T08:05:16.997Z,8.20
2018-02-01T08:06:17.025Z,8.59
2018-02-01T08:07:17.053Z,8.29
2018-02-01T08:08:17.082Z,8.49
2018-02-01T08:09:17.136Z,8.11
2018-02-01T08:10:17.143Z,8.20
2018-02-01T08:11:17.190Z,8.49
2018-02-01T08:12:17.194Z,8.20
2018-02-01T08:13:17.223Z,8.20
2018-02-01T08:14:17.252Z,8.29
2018-02-01T08:15:17.281Z,8.29
2018-02-01T08:16:17.308Z,8.11
2018-02-01T08:17:17.337Z,8.01
2018-02-01T08:18:17.365Z,8.11
2018-02-01T08:19:17.394Z,8.39
2018-02-01T08:20:17.499Z,8.11
2018-02-01T08:21:17.455Z,8.49
2018-02-01T08:22:17.507Z,8.11
2018-02-01T08:23:17.505Z,8.20
2018-02-01T08:24:17.534Z,8.11
2018-02-01T08:25:17.563Z,8.29
2018-02-01T08:26:17.591Z,8.20
2018-02-01T08:27:17.619Z,8.29
2018-02-01T08:28:17.648Z,7.81
2018-02-01T08:29:17.680Z,8.29
2018-02-01T08:30:17.720Z,8.20
2018-02-01T08:31:17.731Z,8.29
2018-02-01T08:32:17.779Z,8.20
2018-02-01T08:33:17.790Z,8.29
2018-02-01T08:34:17.818Z,7.91
2018-02-01T08:35:17.845Z,8.01
2018-02-01T08:36:17.880Z,8.20
2018-02-01T08:37:17.903Z,8.20
2018-02-01T08:38:17.937Z,8.20
2018-02-01T08:39:18.665Z,8.39
2018-02-01T08:40:17.989Z,8.39
2018-02-01T08:41:18.017Z,8.20
2018-02-01T08:42:18.596Z,8.29
2018-02-01T08:43:18.072Z,8.20
2018-02-01T08:44:18.104Z,8.20
2018-02-01T08:45:18.148Z,8.20
2018-02-01T08:46:18.168Z,8.20
2018-02-01T08:47:18.186Z,8.39
2018-02-01T08:48:18.215Z,8.20
2018-02-01T08:49:18.283Z,8.29
2018-02-01T08:50:18.307Z,8.20
2018-02-01T08:51:18.299Z,8.20
2018-02-01T08:52:18.326Z,8.29
2018-02-01T08:53:18.358Z,8.11
2018-02-01T08:54:18.385Z,8.11
2018-02-01T08:55:18.414Z,8.29
2018-02-01T08:56:18.441Z,8.49
2018-02-01T08:57:18.495Z,8.11
2018-02-01T08:58:18.498Z,8.20
2018-02-01T08:59:18.525Z,8.29
2018-02-01T09:00:18.554Z,8.29
2018-02-01T09:01:18.583Z,8.01
2018-02-01T09:02:18.611Z,8.39
2018-02-01T09:03:18.640Z,8.11
2018-02-01T09:04:18.667Z,8.11
2018-02-01T09:05:18.695Z,8.20
2018-02-01T09:06:18.725Z,8.29
2018-02-01T09:07:18.754Z,8.20
2018-02-01T09:08:18.781Z,8.49
2018-02-01T09:09:18.810Z,8.49
2018-02-01T09:10:18.873Z,8.20
2018-02-01T09:11:18.866Z,8.20
2018-02-01T09:12:18.894Z,8.87
2018-02-01T09:13:18.922Z,8.87
2018-02-01T09:14:18.953Z,8.49
2018-02-01T09:15:18.979Z,8.88
2018-02-01T09:16:19.009Z,8.50
2018-02-01T09:17:19.035Z,8.59
2018-02-01T09:18:19.064Z,8.59
2018-02-01T09:19:19.092Z,8.59
2018-02-01T09:20:19.121Z,8.59
2018-02-01T09:21:19.149Z,8.59
2018-02-01T09:22:19.181Z,8.59
2018-02-01T09:23:19.208Z,8.69
2018-02-01T09:24:19.234Z,8.59
2018-02-01T09:25:19.268Z,8.59
2018-02-01T09:26:19.294Z,8.50
2018-02-01T09:27:19.319Z,8.50
2018-02-01T09:28:19.347Z,8.78
2018-02-01T09:29:19.375Z,8.78
2018-02-01T09:30:19.405Z,8.50
2018-02-01T09:31:19.467Z,8.50
2018-02-01T09:32:19.465Z,8.50
2018-02-01T09:33:19.490Z,8.78
2018-02-01T09:34:19.522Z,8.59
2018-02-01T09:35:19.546Z,8.50
2018-02-01T09:36:19.581Z,8.69
2018-02-01T09:37:19.603Z,8.78
2018-02-01T09:38:19.636Z,8.59
2018-02-01T09:39:19.665Z,8.59
2018-02-01T09:40:19.693Z,8.69
2018-02-01T09:41:19.717Z,8.59
2018-02-01T09:42:19.746Z,8.59
2018-02-01T09:43:19.776Z,8.50
2018-02-01T09:44:19.804Z,8.69
2018-02-01T09:45:19.831Z,8.59
2018-02-01T09:46:19.865Z,8.69
2018-02-01T09:47:19.888Z,8.69
2018-02-01T09:48:19.931Z,8.50
2018-02-01T09:49:19.982Z,8.50
2018-02-01T09:50:19.974Z,8.59
2018-02-01T09:51:20.012Z,8.69
2018-02-01T09:52:20.031Z,8.69
2018-02-01T09:53:20.068Z,8.11
2018-02-01T09:54:20.099Z,8.11
2018-02-01T09:55:20.636Z,8.20
2018-02-01T09:56:20.144Z,8.30
2018-02-01T09:57:20.173Z,8.30
2018-02-01T09:58:20.202Z,8.11
2018-02-01T09:59:20.252Z,8.11
2018-02-01T10:00:20.319Z,8.20
2018-02-01T10:01:20.287Z,8.11
2018-02-01T10:02:20.317Z,8.11
2018-02-01T10:03:20.343Z,8.40
2018-02-01T10:04:20.375Z,8.11
2018-02-01T10:05:20.402Z,8.50
2018-02-01T10:06:20.429Z,8.20
2018-02-01T10:07:20.460Z,8.20
2018-02-01T10:08:20.488Z,8.20
2018-02-01T10:09:20.516Z,8.40
2018-02-01T10:10:20.543Z,8.50
2018-02-01T10:11:20.572Z,8.11
2018-02-01T10:12:20.601Z,8.40
2018-02-01T10:13:20.629Z,8.88
2018-02-01T10:14:20.658Z,8.59
2018-02-01T10:15:20.686Z,8.69
2018-02-01T10:16:20.714Z,8.50
2018-02-01T10:17:20.746Z,8.40
2018-02-01T10:18:20.772Z,8.78
2018-02-01T10:19:20.804Z,8.40
2018-02-01T10:20:20.860Z,8.79
2018-02-01T10:21:20.861Z,8.69
2018-02-01T10:22:20.900Z,8.79
2018-02-01T10:23:20.957Z,8.79
2018-02-01T10:24:20.942Z,8.98
2018-02-01T10:25:20.972Z,8.79
2018-02-01T10:26:21.000Z,8.59
2018-02-01T10:27:21.027Z,8.50
2018-02-01T10:28:21.058Z,8.20
2018-02-01T10:29:21.088Z,8.20
2018-02-01T10:30:21.113Z,8.48
2018-02-01T10:31:21.142Z,8.67
2018-02-01T10:32:21.192Z,8.58
2018-02-01T10:33:21.199Z,8.87
2018-02-01T10:34:21.227Z,8.97
2018-02-01T10:35:21.254Z,9.06
2018-02-01T10:36:21.283Z,8.87
2018-02-01T10:37:21.311Z,8.87
2018-02-01T10:38:21.341Z,8.68
2018-02-01T10:39:21.370Z,8.78
2018-02-01T10:40:21.395Z,8.97
2018-02-01T10:41:21.431Z,8.58
2018-02-01T10:42:21.453Z,8.78
2018-02-01T10:43:21.493Z,8.68
2018-02-01T10:44:21.512Z,8.87
2018-02-01T10:45:21.536Z,8.68
2018-02-01T10:46:21.565Z,8.59
2018-02-01T10:47:21.608Z,8.59
2018-02-01T10:48:21.630Z,8.87
2018-02-01T10:49:21.651Z,8.49
2018-02-01T10:50:21.683Z,8.69
2018-02-01T10:51:21.709Z,8.69
2018-02-01T10:52:21.735Z,8.59
2018-02-01T10:53:21.767Z,8.39
2018-02-01T10:54:21.792Z,8.49
2018-02-01T10:55:21.819Z,8.49
2018-02-01T10:56:21.863Z,8.59
2018-02-01T10:57:21.915Z,8.49
2018-02-01T10:58:21.908Z,8.49
2018-02-01T10:59:21.933Z,8.59
2018-02-01T11:00:22.016Z,8.59
2018-02-01T11:01:21.993Z,8.49
2018-02-01T11:02:22.019Z,8.59
2018-02-01T11:03:22.051Z,8.49
2018-02-01T11:04:22.074Z,8.59
2018-02-01T11:05:22.104Z,8.59
2018-02-01T11:06:22.132Z,8.59
2018-02-01T11:07:22.183Z,8.59
2018-02-01T11:08:22.191Z,8.50
2018-02-01T11:09:22.218Z,8.30
2018-02-01T11:10:22.260Z,8.50
2018-02-01T11:11:22.272Z,8.30
2018-02-01T11:12:22.302Z,8.40
2018-02-01T11:13:22.332Z,8.59
2018-02-01T11:14:22.358Z,8.50
2018-02-01T11:15:22.408Z,8.50
2018-02-01T11:16:22.416Z,8.30
2018-02-01T11:17:22.443Z,8.50
2018-02-01T11:18:22.474Z,8.59
2018-02-01T11:19:22.500Z,8.78
2018-02-01T11:20:22.528Z,8.88
2018-02-01T11:21:22.557Z,8.78
2018-02-01T11:22:22.586Z,8.78
2018-02-01T11:23:22.614Z,8.69
2018-02-01T11:24:22.642Z,8.88
2018-02-01T11:25:22.670Z,8.98
2018-02-01T11:26:22.700Z,8.98
2018-02-01T11:27:22.738Z,8.69
2018-02-01T11:28:22.756Z,8.78
2018-02-01T11:29:22.784Z,8.59
2018-02-01T11:30:22.816Z,8.88
2018-02-01T11:31:22.841Z,8.69
2018-02-01T11:32:22.871Z,8.69
2018-02-01T11:33:22.899Z,8.69
2018-02-01T11:34:22.927Z,8.78
2018-02-01T11:35:22.955Z,8.88
2018-02-01T11:36:22.988Z,8.78
2018-02-01T11:37:23.075Z,8.88
2018-02-01T11:38:23.041Z,8.88
2018-02-01T11:39:23.069Z,8.59
2018-02-01T11:40:23.119Z,8.88
2018-02-01T11:41:23.126Z,8.69
2018-02-01T11:42:23.156Z,8.78
2018-02-01T11:43:23.183Z,8.69
2018-02-01T11:44:23.212Z,8.98
2018-02-01T11:45:23.241Z,8.98
2018-02-01T11:46:23.269Z,8.78
2018-02-01T11:47:23.303Z,8.88
2018-02-01T11:48:23.326Z,8.88
2018-02-01T11:49:23.357Z,8.98
2018-02-01T11:50:23.384Z,8.69
2018-02-01T11:51:23.411Z,8.88
2018-02-01T11:52:23.440Z,8.69
2018-02-01T11:53:23.472Z,8.69
2018-02-01T11:54:23.501Z,8.88
2018-02-01T11:55:23.525Z,8.78
2018-02-01T11:56:23.554Z,8.88
2018-02-01T11:57:23.582Z,8.59
2018-02-01T11:58:23.612Z,8.50
2018-02-01T11:59:23.673Z,8.78
2018-02-01T12:00:23.668Z,8.88
2018-02-01T12:01:23.701Z,8.78
2018-02-01T12:02:23.752Z,8.88
2018-02-01T12:03:23.752Z,8.69
2018-02-01T12:04:23.782Z,8.88
2018-02-01T12:05:23.846Z,8.98
2018-02-01T12:06:23.840Z,8.98
2018-02-01T12:07:23.868Z,8.78
2018-02-01T12:08:23.896Z,8.78
2018-02-01T12:09:23.925Z,8.88
2018-02-01T12:10:23.953Z,8.98
2018-02-01T12:11:23.980Z,8.98
2018-02-01T12:12:24.010Z,8.88
2018-02-01T12:13:24.057Z,8.98
2018-02-01T12:14:24.067Z,9.08
2018-02-01T12:15:24.095Z,8.78
2018-02-01T12:16:24.123Z,8.78
2018-02-01T12:17:24.152Z,8.78
2018-02-01T12:18:24.181Z,8.88
2018-02-01T12:19:24.210Z,8.88
2018-02-01T12:20:24.237Z,8.69
2018-02-01T12:21:24.266Z,8.88
2018-02-01T12:22:24.317Z,8.50
2018-02-01T12:23:24.322Z,8.88
2018-02-01T12:24:24.352Z,8.50
2018-02-01T12:25:24.380Z,8.50
2018-02-01T12:26:24.408Z,8.69
2018-02-01T12:27:24.438Z,8.59
2018-02-01T12:28:24.465Z,8.59
2018-02-01T12:29:24.494Z,8.78
2018-02-01T12:30:24.522Z,8.69
2018-02-01T12:31:24.550Z,8.30
2018-02-01T12:32:24.579Z,8.40
2018-02-01T12:33:24.607Z,8.11
2018-02-01T12:34:24.636Z,8.01
2018-02-01T12:35:24.709Z,8.50
2018-02-01T12:36:24.720Z,8.01
2018-02-01T12:37:24.722Z,8.20
2018-02-01T12:38:24.786Z,8.20
2018-02-01T12:39:24.779Z,8.30
2018-02-01T12:40:24.806Z,8.20
2018-02-01T12:41:24.835Z,8.29
2018-02-01T12:42:24.864Z,8.39
2018-02-01T12:43:24.891Z,8.30
2018-02-01T12:44:24.921Z,8.30
2018-02-01T12:45:24.949Z,7.72
2018-02-01T12:46:24.977Z,8.01
2018-02-01T12:47:25.005Z,7.82
2018-02-01T12:48:25.034Z,8.01
2018-02-01T12:49:25.065Z,8.01
2018-02-01T12:50:25.091Z,8.20
2018-02-01T12:51:25.173Z,7.91
2018-02-01T12:52:25.146Z,8.01
2018-02-01T12:53:25.178Z,8.01
2018-02-01T12:54:25.203Z,8.01
2018-02-01T12:55:25.233Z,7.92
2018-02-01T12:56:25.260Z,7.62
2018-02-01T12:57:25.290Z,7.82
2018-02-01T12:58:25.318Z,7.82
2018-02-01T12:59:25.344Z,8.11
2018-02-01T13:00:25.373Z,7.91
2018-02-01T13:01:25.402Z,7.91
2018-02-01T13:02:25.434Z,7.82
2018-02-01T13:03:25.457Z,7.91
2018-02-01T13:04:25.486Z,7.91
2018-02-01T13:05:25.515Z,7.92
2018-02-01T13:06:25.543Z,8.20
2018-02-01T13:07:25.571Z,7.91
2018-02-01T13:08:25.627Z,7.91
2018-02-01T13:09:25.653Z,7.91
2018-02-01T13:10:25.655Z,7.91
2018-02-01T13:11:25.686Z,8.01
2018-02-01T13:12:25.711Z,7.81
2018-02-01T13:13:25.741Z,7.91
2018-02-01T13:14:25.768Z,7.91